Time;durP1;ratioP1;P1;durP2;ratioP2;P2;SDS_P1;SDS_P2;PMS_P1;PMS_P2;Temp;Humidity;BMP_temperature;BMP_pressure;BME280_temperature;BME280_humidity;BME280_pressure;Samples;Min_cycle;Max_cycle;Signal;HPM_P1;HPM_P2
2023/10/28 00:09:24;;;;;;;;;;;10.60;99.90;;;;;;6712754;88;20189;-78
2023/10/28 00:19:24;;;;;;;;;;;10.40;99.90;;;;;;6719287;88;20847;-77
2023/10/28 00:29:25;;;;;;;;;;;10.50;99.90;;;;;;6719888;88;20043;-77
2023/10/28 00:39:25;;;;;;;;;;;10.60;99.90;;;;;;6713074;88;20167;-78
2023/10/28 00:49:26;;;;;;;;;;;10.70;99.90;;;;;;6718497;88;20078;-78
2023/10/28 00:59:27;;;;;;;;;;;10.70;99.90;;;;;;6721839;88;20072;-79
2023/10/28 01:09:28;;;;;;;;;;;10.70;99.90;;;;;;6717707;88;20089;-78
2023/10/28 01:19:28;;;;;;;;;;;10.60;99.90;;;;;;6719507;88;20114;-77
2023/10/28 01:29:28;;;;;;;;;;;10.50;99.90;;;;;;6720474;88;20078;-79
2023/10/28 01:39:29;;;;;;;;;;;10.40;99.90;;;;;;6716327;88;20050;-78
2023/10/28 01:49:31;;;;;;;;;;;10.40;99.90;;;;;;6719133;88;20211;-78
2023/10/28 01:59:35;;;;;;;;;;;10.50;99.90;;;;;;6700871;88;20120;-78
2023/10/28 02:09:36;;;;;;;;;;;10.40;99.90;;;;;;6701696;88;20056;-78
2023/10/28 02:19:36;;;;;;;;;;;10.50;99.90;;;;;;6702295;88;20543;-78
2023/10/28 02:29:37;;;;;;;;;;;10.50;99.90;;;;;;6702053;88;20054;-79
2023/10/28 02:39:37;;;;;;;;;;;10.50;99.90;;;;;;6701782;88;20067;-79
2023/10/28 02:49:38;;;;;;;;;;;10.40;99.90;;;;;;6700927;88;20611;-78
2023/10/28 02:59:38;;;;;;;;;;;10.50;99.90;;;;;;6715366;88;20141;-78
2023/10/28 03:09:39;;;;;;;;;;;10.40;99.90;;;;;;6717347;88;20139;-79
2023/10/28 03:19:40;;;;;;;;;;;10.40;99.90;;;;;;6718211;88;20058;-78
2023/10/28 03:29:42;;;;;;;;;;;10.30;99.90;;;;;;6717898;88;20051;-79
2023/10/28 03:39:42;;;;;;;;;;;10.20;99.90;;;;;;6718374;88;20552;-79
2023/10/28 03:49:43;;;;;;;;;;;10.00;99.90;;;;;;6716720;88;20074;-78
2023/10/28 03:59:46;;;;;;;;;;;10.00;99.90;;;;;;6716997;88;20113;-78
2023/10/28 04:09:46;;;;;;;;;;;9.90;99.90;;;;;;6714450;88;20117;-78
2023/10/28 04:19:48;;;;;;;;;;;9.80;99.90;;;;;;6716717;88;21021;-79
2023/10/28 04:29:50;;;;;;;;;;;9.80;99.90;;;;;;6713677;88;20177;-79
2023/10/28 04:50:52;;;;;;;;;;;9.90;99.90;;;;;;6727667;88;20043;-80
2023/10/28 05:00:53;;;;;;;;;;;9.90;99.90;;;;;;6746064;88;20067;-81
2023/10/28 05:10:54;;;;;;;;;;;10.00;99.90;;;;;;6748957;88;20085;-81
2023/10/28 05:20:55;;;;;;;;;;;10.10;99.90;;;;;;6730078;88;20047;-81
2023/10/28 05:30:55;;;;;;;;;;;9.90;99.90;;;;;;6748319;88;20569;-81
2023/10/28 05:40:56;;;;;;;;;;;9.90;99.90;;;;;;6758417;88;20046;-81
2023/10/28 05:50:57;;;;;;;;;;;9.80;99.90;;;;;;6737366;88;20072;-80
2023/10/28 06:01:02;;;;;;;;;;;9.70;99.90;;;;;;6732591;88;20097;-81
2023/10/28 06:11:02;;;;;;;;;;;9.60;99.90;;;;;;6730396;88;20149;-81
2023/10/28 06:21:03;;;;;;;;;;;9.60;99.90;;;;;;6726139;88;20047;-80
2023/10/28 06:31:04;;;;;;;;;;;9.80;99.90;;;;;;6728432;88;20146;-80
2023/10/28 06:41:04;;;;;;;;;;;9.80;99.90;;;;;;6727459;88;20065;-80
2023/10/28 06:51:06;;;;;;;;;;;9.90;99.90;;;;;;6742690;88;20076;-80
2023/10/28 07:01:09;;;;;;;;;;;10.00;99.90;;;;;;6749433;88;20066;-80
2023/10/28 07:11:13;;;;;;;;;;;10.20;99.90;;;;;;6724934;88;20712;-81
2023/10/28 07:21:13;;;;;;;;;;;10.20;99.90;;;;;;6724846;88;20058;-80
2023/10/28 07:31:16;;;;;;;;;;;10.30;99.90;;;;;;6749093;88;20081;-81
2023/10/28 07:41:17;;;;;;;;;;;10.40;99.90;;;;;;6762368;88;20082;-80
2023/10/28 07:51:18;;;;;;;;;;;10.40;99.90;;;;;;6746792;88;20079;-81
2023/10/28 08:01:19;;;;;;;;;;;10.50;99.90;;;;;;6732463;88;20598;-80
2023/10/28 08:11:20;;;;;;;;;;;10.60;99.90;;;;;;6725035;88;20081;-79
2023/10/28 08:21:21;;;;;;;;;;;10.80;99.90;;;;;;6737715;88;20048;-82
2023/10/28 08:31:21;;;;;;;;;;;10.90;99.90;;;;;;6730822;88;20149;-79
2023/10/28 08:41:23;;;;;;;;;;;11.00;99.90;;;;;;6733105;88;20521;-82
2023/10/28 08:51:24;;;;;;;;;;;11.20;99.90;;;;;;6757286;88;20087;-81
2023/10/28 09:01:27;;;;;;;;;;;11.30;99.90;;;;;;6749809;88;20058;-79
2023/10/28 09:11:27;;;;;;;;;;;11.60;99.90;;;;;;6749163;88;20084;-80
2023/10/28 09:21:29;;;;;;;;;;;11.60;99.90;;;;;;6749353;88;20093;-80
2023/10/28 09:31:29;;;;;;;;;;;11.70;99.90;;;;;;6754440;88;20069;-79
2023/10/28 09:41:31;;;;;;;;;;;12.10;99.90;;;;;;6734705;88;20063;-81
2023/10/28 09:51:33;;;;;;;;;;;12.50;99.90;;;;;;6741533;88;20058;-81
2023/10/28 10:01:34;;;;;;;;;;;13.20;99.90;;;;;;6741696;88;20524;-79
2023/10/28 10:11:39;;;;;;;;;;;14.10;99.90;;;;;;6730846;88;20042;-79
2023/10/28 10:21:47;;;;;;;;;;;14.20;99.90;;;;;;6734268;88;20062;-79
2023/10/28 10:31:51;;;;;;;;;;;15.30;99.90;;;;;;6737685;88;20150;-80
2023/10/28 10:41:55;;;;;;;;;;;15.30;99.90;;;;;;6744898;88;20630;-80
2023/10/28 10:51:57;;;;;;;;;;;15.00;99.90;;;;;;6743110;88;20070;-81
2023/10/28 11:01:57;;;;;;;;;;;14.80;99.90;;;;;;6733230;88;20520;-80
2023/10/28 11:11:58;;;;;;;;;;;14.70;99.90;;;;;;6742204;88;20127;-76
2023/10/28 11:21:59;;;;;;;;;;;15.60;99.90;;;;;;6745343;88;20058;-79
2023/10/28 11:32:08;;;;;;;;;;;15.60;99.90;;;;;;6748337;88;20187;-79
2023/10/28 11:42:13;;;;;;;;;;;15.60;99.90;;;;;;6740535;88;20109;-77
2023/10/28 11:52:13;;;;;;;;;;;15.90;99.90;;;;;;6731551;88;20068;-78
2023/10/28 12:02:14;;;;;;;;;;;15.70;99.90;;;;;;6736749;88;20505;-79
2023/10/28 12:12:14;;;;;;;;;;;15.70;99.90;;;;;;6719195;88;20113;-79
2023/10/28 12:22:14;;;;;;;;;;;15.00;99.90;;;;;;6723580;88;20065;-80
2023/10/28 12:32:15;;;;;;;;;;;14.80;99.90;;;;;;6736840;88;20513;-80
2023/10/28 12:42:15;;;;;;;;;;;15.00;99.90;;;;;;6741510;88;20068;-79
2023/10/28 12:52:16;;;;;;;;;;;15.10;99.90;;;;;;6738485;88;20181;-80
2023/10/28 13:02:17;;;;;;;;;;;14.80;99.90;;;;;;6726833;88;20051;-82
2023/10/28 13:12:19;;;;;;;;;;;15.10;99.90;;;;;;6724054;88;20098;-80
2023/10/28 13:22:20;;;;;;;;;;;14.80;99.90;;;;;;6742698;88;20049;-82
2023/10/28 13:32:21;;;;;;;;;;;14.90;99.90;;;;;;6735760;88;20046;-80
2023/10/28 13:42:22;;;;;;;;;;;14.50;99.90;;;;;;6730810;88;20087;-80
2023/10/28 13:52:22;;;;;;;;;;;14.40;99.90;;;;;;6728443;88;20218;-80
2023/10/28 14:02:23;;;;;;;;;;;14.50;99.90;;;;;;6727300;88;20129;-82
2023/10/28 14:12:24;;;;;;;;;;;14.60;99.90;;;;;;6736168;88;20137;-82
2023/10/28 14:22:25;;;;;;;;;;;14.90;99.90;;;;;;6731567;88;20070;-80
2023/10/28 14:32:25;;;;;;;;;;;14.70;99.90;;;;;;6728289;88;20106;-82
2023/10/28 14:42:26;;;;;;;;;;;14.20;99.90;;;;;;6729844;88;20063;-80
2023/10/28 14:52:26;;;;;;;;;;;14.00;99.90;;;;;;6729349;88;20386;-82
2023/10/28 15:02:27;;;;;;;;;;;14.00;99.90;;;;;;6727250;88;20070;-81
2023/10/28 15:12:27;;;;;;;;;;;13.90;99.90;;;;;;6723321;88;20066;-80
2023/10/28 15:22:28;;;;;;;;;;;13.90;99.90;;;;;;6723487;88;20129;-80
2023/10/28 15:32:29;;;;;;;;;;;13.70;99.90;;;;;;6726296;88;20072;-79
2023/10/28 15:42:31;;;;;;;;;;;13.50;99.90;;;;;;6728414;88;20073;-81
2023/10/28 15:52:31;;;;;;;;;;;13.30;99.90;;;;;;6729192;88;20506;-81
2023/10/28 16:02:32;;;;;;;;;;;13.30;99.90;;;;;;6738774;88;20084;-82
2023/10/28 16:12:34;;;;;;;;;;;13.30;99.90;;;;;;6746070;88;20509;-83
2023/10/28 16:22:34;;;;;;;;;;;13.20;99.90;;;;;;6743645;88;20054;-82
2023/10/28 16:32:35;;;;;;;;;;;13.30;99.90;;;;;;6736981;88;20062;-82
2023/10/28 16:42:36;;;;;;;;;;;13.10;99.90;;;;;;6731954;88;20084;-81
2023/10/28 16:52:36;;;;;;;;;;;13.10;99.90;;;;;;6733328;88;20520;-80
2023/10/28 17:02:37;;;;;;;;;;;13.10;99.90;;;;;;6732220;88;20062;-81
2023/10/28 17:12:38;;;;;;;;;;;13.00;99.90;;;;;;6733701;88;20550;-81
2023/10/28 17:22:39;;;;;;;;;;;12.80;99.90;;;;;;6729509;88;20077;-80
2023/10/28 17:32:40;;;;;;;;;;;12.80;99.90;;;;;;6736132;88;20186;-79
2023/10/28 17:42:42;;;;;;;;;;;12.70;99.90;;;;;;6749842;88;20257;-81
2023/10/28 17:52:43;;;;;;;;;;;12.60;99.90;;;;;;6753611;88;20589;-81
2023/10/28 18:02:43;;;;;;;;;;;12.60;99.90;;;;;;6754933;88;20224;-81
2023/10/28 18:12:44;;;;;;;;;;;12.50;99.90;;;;;;6753346;88;20065;-80
2023/10/28 18:22:44;;;;;;;;;;;12.50;99.90;;;;;;6742929;88;20051;-81
2023/10/28 18:32:45;;;;;;;;;;;12.60;99.90;;;;;;6743673;88;20546;-81
2023/10/28 18:42:45;;;;;;;;;;;12.60;99.90;;;;;;6737551;88;20071;-82
2023/10/28 18:52:47;;;;;;;;;;;12.60;99.90;;;;;;6740560;88;20054;-82
2023/10/28 19:02:48;;;;;;;;;;;12.30;99.90;;;;;;6736043;88;20074;-82
2023/10/28 19:12:49;;;;;;;;;;;12.20;99.90;;;;;;6737891;88;20054;-83
2023/10/28 19:22:50;;;;;;;;;;;12.10;99.90;;;;;;6737236;88;20057;-83
2023/10/28 19:32:50;;;;;;;;;;;12.00;99.90;;;;;;6753044;87;20105;-82
2023/10/28 19:42:51;;;;;;;;;;;11.90;99.90;;;;;;6750351;88;20077;-81
2023/10/28 19:52:51;;;;;;;;;;;11.90;99.90;;;;;;6750123;88;20058;-83
2023/10/28 20:02:54;;;;;;;;;;;11.80;99.90;;;;;;6750078;88;20046;-84
2023/10/28 20:12:54;;;;;;;;;;;11.90;99.90;;;;;;6759763;88;20145;-82
2023/10/28 20:22:54;;;;;;;;;;;11.90;99.90;;;;;;6749218;88;20099;-82
2023/10/28 20:32:55;;;;;;;;;;;11.90;99.90;;;;;;6749950;88;20064;-82
2023/10/28 20:42:56;;;;;;;;;;;11.90;99.90;;;;;;6758600;88;20160;-82
2023/10/28 20:52:57;;;;;;;;;;;11.90;99.90;;;;;;6755094;88;20075;-82
2023/10/28 21:02:57;;;;;;;;;;;11.90;99.90;;;;;;6753506;88;20544;-82
2023/10/28 21:12:58;;;;;;;;;;;12.00;99.90;;;;;;6754127;88;20061;-82
2023/10/28 21:22:58;;;;;;;;;;;12.10;99.90;;;;;;6754138;88;20077;-82
2023/10/28 21:32:59;;;;;;;;;;;12.30;99.90;;;;;;6754480;88;20081;-81
2023/10/28 21:42:59;;;;;;;;;;;12.20;99.90;;;;;;6750292;88;20083;-82
2023/10/28 21:53:00;;;;;;;;;;;12.30;99.90;;;;;;6755002;88;20075;-82
2023/10/28 22:03:01;;;;;;;;;;;12.40;99.90;;;;;;6757018;88;20162;-83
2023/10/28 22:13:03;;;;;;;;;;;12.50;99.90;;;;;;6758297;88;20133;-83
2023/10/28 22:23:03;;;;;;;;;;;12.60;99.90;;;;;;6751993;88;20107;-82
2023/10/28 22:33:04;;;;;;;;;;;12.50;99.90;;;;;;6751788;88;20026;-83
2023/10/28 22:43:05;;;;;;;;;;;12.60;99.90;;;;;;6763135;88;20038;-83
2023/10/28 22:53:08;;;;;;;;;;;12.90;99.90;;;;;;6751449;88;20160;-83
2023/10/28 23:03:09;;;;;;;;;;;13.00;99.90;;;;;;6753003;87;20606;-83
2023/10/28 23:13:10;;;;;;;;;;;13.00;99.90;;;;;;6754288;88;20094;-81
2023/10/28 23:23:10;;;;;;;;;;;13.10;99.90;;;;;;6752757;88;20813;-82
2023/10/28 23:33:11;;;;;;;;;;;13.10;99.90;;;;;;6753809;88;20601;-82
2023/10/28 23:43:12;;;;;;;;;;;13.20;99.90;;;;;;6751766;88;20057;-82
2023/10/28 23:53:12;;;;;;;;;;;13.20;99.90;;;;;;6748209;88;20065;-81
